sensor_id;sensor_type;location;lat;lon;timestamp;pressure;altitude;pressure_sealevel;temperature;humidity
8140;BME280;4111;50.972;7.072;2023-02-04T00:01:57;102608.50;;;9.32;86.46
8140;BME280;4111;50.972;7.072;2023-02-04T00:04:23;102613.94;;;9.32;86.37
8140;BME280;4111;50.972;7.072;2023-02-04T00:06:50;102610.59;;;9.30;86.68
8140;BME280;4111;50.972;7.072;2023-02-04T00:09:16;102618.44;;;9.25;86.52
8140;BME280;4111;50.972;7.072;2023-02-04T00:11:43;102625.81;;;9.31;86.82
8140;BME280;4111;50.972;7.072;2023-02-04T00:14:10;102634.13;;;9.30;86.45
8140;BME280;4111;50.972;7.072;2023-02-04T00:16:37;102640.59;;;9.29;86.16
8140;BME280;4111;50.972;7.072;2023-02-04T00:19:04;102639.09;;;9.26;86.63
8140;BME280;4111;50.972;7.072;2023-02-04T00:21:30;102648.91;;;9.27;86.68
8140;BME280;4111;50.972;7.072;2023-02-04T00:23:57;102633.41;;;9.21;86.51
8140;BME280;4111;50.972;7.072;2023-02-04T00:26:23;102637.59;;;9.24;86.62
8140;BME280;4111;50.972;7.072;2023-02-04T00:28:49;102650.97;;;9.25;86.50
8140;BME280;4111;50.972;7.072;2023-02-04T00:31:16;102659.09;;;9.25;86.58
8140;BME280;4111;50.972;7.072;2023-02-04T00:33:43;102653.69;;;9.25;86.31
8140;BME280;4111;50.972;7.072;2023-02-04T00:36:09;102659.50;;;9.22;86.14
8140;BME280;4111;50.972;7.072;2023-02-04T00:38:35;102654.72;;;9.24;86.41
8140;BME280;4111;50.972;7.072;2023-02-04T00:41:02;102651.38;;;9.22;86.27
8140;BME280;4111;50.972;7.072;2023-02-04T00:43:28;102652.19;;;9.23;86.42
8140;BME280;4111;50.972;7.072;2023-02-04T00:45:55;102652.38;;;9.21;86.15
8140;BME280;4111;50.972;7.072;2023-02-04T00:48:21;102649.94;;;9.26;86.36
8140;BME280;4111;50.972;7.072;2023-02-04T00:50:49;102653.44;;;9.20;85.97
8140;BME280;4111;50.972;7.072;2023-02-04T00:53:16;102660.22;;;9.16;85.92
8140;BME280;4111;50.972;7.072;2023-02-04T00:55:42;102663.34;;;9.13;85.83
8140;BME280;4111;50.972;7.072;2023-02-04T00:58:08;102663.97;;;9.15;85.84
8140;BME280;4111;50.972;7.072;2023-02-04T01:00:35;102665.28;;;9.19;86.07
8140;BME280;4111;50.972;7.072;2023-02-04T01:03:02;102664.63;;;9.17;85.51
8140;BME280;4111;50.972;7.072;2023-02-04T01:05:28;102657.72;;;9.15;85.64
8140;BME280;4111;50.972;7.072;2023-02-04T01:07:55;102669.78;;;9.12;85.50
8140;BME280;4111;50.972;7.072;2023-02-04T01:10:21;102673.34;;;9.12;85.77
8140;BME280;4111;50.972;7.072;2023-02-04T01:12:48;102666.22;;;9.11;85.67
8140;BME280;4111;50.972;7.072;2023-02-04T01:15:14;102667.81;;;9.06;85.45
8140;BME280;4111;50.972;7.072;2023-02-04T01:17:41;102673.72;;;9.09;85.54
8140;BME280;4111;50.972;7.072;2023-02-04T01:20:08;102676.72;;;9.15;85.68
8140;BME280;4111;50.972;7.072;2023-02-04T01:22:35;102680.25;;;9.15;85.25
8140;BME280;4111;50.972;7.072;2023-02-04T01:25:02;102681.47;;;9.12;85.11
8140;BME280;4111;50.972;7.072;2023-02-04T01:27:28;102681.25;;;9.14;85.21
8140;BME280;4111;50.972;7.072;2023-02-04T01:29:54;102682.69;;;9.10;85.21
8140;BME280;4111;50.972;7.072;2023-02-04T01:32:21;102696.63;;;9.07;85.63
8140;BME280;4111;50.972;7.072;2023-02-04T01:34:47;102707.06;;;9.10;85.57
8140;BME280;4111;50.972;7.072;2023-02-04T01:37:14;102699.59;;;9.12;85.34
8140;BME280;4111;50.972;7.072;2023-02-04T01:39:40;102699.88;;;9.17;85.23
8140;BME280;4111;50.972;7.072;2023-02-04T01:42:07;102696.88;;;9.12;85.41
8140;BME280;4111;50.972;7.072;2023-02-04T01:44:34;102693.81;;;9.15;85.46
8140;BME280;4111;50.972;7.072;2023-02-04T01:47:01;102711.47;;;9.11;85.43
8140;BME280;4111;50.972;7.072;2023-02-04T01:49:28;102704.63;;;9.15;85.04
8140;BME280;4111;50.972;7.072;2023-02-04T01:51:54;102718.19;;;9.15;85.41
8140;BME280;4111;50.972;7.072;2023-02-04T01:54:21;102720.25;;;9.13;85.68
8140;BME280;4111;50.972;7.072;2023-02-04T01:56:48;102721.38;;;9.19;85.45
8140;BME280;4111;50.972;7.072;2023-02-04T01:59:17;102727.91;;;9.24;85.33
8140;BME280;4111;50.972;7.072;2023-02-04T02:01:46;102726.50;;;9.28;85.55
8140;BME280;4111;50.972;7.072;2023-02-04T02:04:16;102724.63;;;9.14;85.49
8140;BME280;4111;50.972;7.072;2023-02-04T02:06:52;102726.97;;;9.17;85.59
8140;BME280;4111;50.972;7.072;2023-02-04T02:09:20;102724.09;;;9.19;85.89
8140;BME280;4111;50.972;7.072;2023-02-04T02:11:47;102735.28;;;9.16;85.63
8140;BME280;4111;50.972;7.072;2023-02-04T02:14:13;102727.25;;;9.22;85.67
8140;BME280;4111;50.972;7.072;2023-02-04T02:16:40;102731.16;;;9.20;85.95
8140;BME280;4111;50.972;7.072;2023-02-04T02:19:09;102729.97;;;9.22;85.96
8140;BME280;4111;50.972;7.072;2023-02-04T02:21:44;102735.09;;;9.17;85.62
8140;BME280;4111;50.972;7.072;2023-02-04T02:24:25;102730.53;;;9.18;85.96
8140;BME280;4111;50.972;7.072;2023-02-04T02:26:53;102727.63;;;9.19;85.98
8140;BME280;4111;50.972;7.072;2023-02-04T02:29:21;102744.72;;;9.20;86.09
8140;BME280;4111;50.972;7.072;2023-02-04T02:31:48;102737.47;;;9.20;86.09
8140;BME280;4111;50.972;7.072;2023-02-04T02:34:15;102737.81;;;9.17;86.12
8140;BME280;4111;50.972;7.072;2023-02-04T02:36:42;102745.94;;;9.17;86.45
8140;BME280;4111;50.972;7.072;2023-02-04T02:39:08;102741.16;;;9.04;86.67
8140;BME280;4111;50.972;7.072;2023-02-04T02:41:35;102746.16;;;9.01;87.15
8140;BME280;4111;50.972;7.072;2023-02-04T02:44:02;102739.50;;;9.03;87.66
8140;BME280;4111;50.972;7.072;2023-02-04T02:46:28;102755.19;;;9.08;87.91
8140;BME280;4111;50.972;7.072;2023-02-04T02:48:55;102753.13;;;9.10;87.79
8140;BME280;4111;50.972;7.072;2023-02-04T02:51:21;102746.06;;;9.09;88.08
8140;BME280;4111;50.972;7.072;2023-02-04T02:53:48;102752.88;;;9.05;88.23
8140;BME280;4111;50.972;7.072;2023-02-04T02:56:17;102745.09;;;9.02;88.23
8140;BME280;4111;50.972;7.072;2023-02-04T02:58:44;102750.91;;;8.99;88.58
8140;BME280;4111;50.972;7.072;2023-02-04T03:01:11;102757.34;;;8.98;88.68
8140;BME280;4111;50.972;7.072;2023-02-04T03:03:42;102756.88;;;8.94;89.44
8140;BME280;4111;50.972;7.072;2023-02-04T03:06:13;102755.88;;;8.95;89.70
8140;BME280;4111;50.972;7.072;2023-02-04T03:08:42;102755.28;;;9.00;89.72
8140;BME280;4111;50.972;7.072;2023-02-04T03:11:09;102753.72;;;9.05;89.46
8140;BME280;4111;50.972;7.072;2023-02-04T03:13:36;102759.31;;;9.04;89.43
8140;BME280;4111;50.972;7.072;2023-02-04T03:16:04;102758.66;;;9.02;89.66
8140;BME280;4111;50.972;7.072;2023-02-04T03:18:31;102764.06;;;9.02;89.50
8140;BME280;4111;50.972;7.072;2023-02-04T03:20:57;102773.25;;;9.01;89.44
8140;BME280;4111;50.972;7.072;2023-02-04T03:23:24;102770.31;;;9.02;89.41
8140;BME280;4111;50.972;7.072;2023-02-04T03:25:52;102783.16;;;9.08;89.45
8140;BME280;4111;50.972;7.072;2023-02-04T03:28:19;102780.34;;;9.02;89.36
8140;BME280;4111;50.972;7.072;2023-02-04T03:30:46;102788.28;;;9.03;89.64
8140;BME280;4111;50.972;7.072;2023-02-04T03:33:19;102794.63;;;8.96;89.25
8140;BME280;4111;50.972;7.072;2023-02-04T03:35:45;102794.06;;;9.00;89.77
8140;BME280;4111;50.972;7.072;2023-02-04T03:38:12;102795.94;;;9.00;89.46
8140;BME280;4111;50.972;7.072;2023-02-04T03:40:38;102796.59;;;9.02;89.49
8140;BME280;4111;50.972;7.072;2023-02-04T03:43:05;102798.66;;;9.00;89.40
8140;BME280;4111;50.972;7.072;2023-02-04T03:45:31;102788.28;;;9.03;89.56
8140;BME280;4111;50.972;7.072;2023-02-04T03:48:10;102791.91;;;8.96;89.25
8140;BME280;4111;50.972;7.072;2023-02-04T03:50:37;102790.78;;;8.90;89.35
8140;BME280;4111;50.972;7.072;2023-02-04T03:53:03;102797.69;;;8.92;89.65
8140;BME280;4111;50.972;7.072;2023-02-04T03:55:29;102800.13;;;8.87;89.30
8140;BME280;4111;50.972;7.072;2023-02-04T03:57:58;102798.09;;;8.89;89.58
8140;BME280;4111;50.972;7.072;2023-02-04T04:00:24;102803.13;;;8.92;90.47
8140;BME280;4111;50.972;7.072;2023-02-04T04:02:51;102805.66;;;8.94;89.95
8140;BME280;4111;50.972;7.072;2023-02-04T04:05:17;102800.63;;;8.91;90.10
8140;BME280;4111;50.972;7.072;2023-02-04T04:07:44;102797.59;;;8.86;89.98
8140;BME280;4111;50.972;7.072;2023-02-04T04:10:11;102804.72;;;8.87;90.28
8140;BME280;4111;50.972;7.072;2023-02-04T04:12:37;102802.84;;;8.87;90.35
8140;BME280;4111;50.972;7.072;2023-02-04T04:15:04;102803.19;;;8.84;90.44
8140;BME280;4111;50.972;7.072;2023-02-04T04:17:31;102807.13;;;8.82;90.50
8140;BME280;4111;50.972;7.072;2023-02-04T04:19:57;102819.19;;;8.79;90.75
8140;BME280;4111;50.972;7.072;2023-02-04T04:22:24;102808.69;;;8.76;90.70
8140;BME280;4111;50.972;7.072;2023-02-04T04:24:50;102815.81;;;8.77;90.74
8140;BME280;4111;50.972;7.072;2023-02-04T04:27:17;102808.69;;;8.76;90.72
8140;BME280;4111;50.972;7.072;2023-02-04T04:29:43;102814.13;;;8.76;91.01
8140;BME280;4111;50.972;7.072;2023-02-04T04:32:10;102815.16;;;8.75;91.41
8140;BME280;4111;50.972;7.072;2023-02-04T04:34:36;102819.91;;;8.73;91.32
8140;BME280;4111;50.972;7.072;2023-02-04T04:37:03;102816.91;;;8.68;91.71
8140;BME280;4111;50.972;7.072;2023-02-04T04:39:29;102822.03;;;8.63;91.92
8140;BME280;4111;50.972;7.072;2023-02-04T04:41:56;102826.13;;;8.59;92.13
8140;BME280;4111;50.972;7.072;2023-02-04T04:44:22;102828.81;;;8.59;92.56
8140;BME280;4111;50.972;7.072;2023-02-04T04:46:48;102833.41;;;8.58;92.77
8140;BME280;4111;50.972;7.072;2023-02-04T04:49:15;102848.16;;;8.56;92.66
8140;BME280;4111;50.972;7.072;2023-02-04T04:51:41;102847.50;;;8.53;92.99
8140;BME280;4111;50.972;7.072;2023-02-04T04:54:08;102852.53;;;8.57;93.46
8140;BME280;4111;50.972;7.072;2023-02-04T04:56:34;102857.22;;;8.63;93.24
8140;BME280;4111;50.972;7.072;2023-02-04T04:59:01;102860.59;;;8.65;93.26
8140;BME280;4111;50.972;7.072;2023-02-04T05:01:28;102855.66;;;8.68;93.33
8140;BME280;4111;50.972;7.072;2023-02-04T05:03:55;102869.41;;;8.67;93.28
8140;BME280;4111;50.972;7.072;2023-02-04T05:06:21;102849.47;;;8.60;93.20
8140;BME280;4111;50.972;7.072;2023-02-04T05:08:51;102849.09;;;8.63;93.29
8140;BME280;4111;50.972;7.072;2023-02-04T05:11:17;102861.31;;;8.59;93.20
8140;BME280;4111;50.972;7.072;2023-02-04T05:13:44;102866.06;;;8.57;93.42
8140;BME280;4111;50.972;7.072;2023-02-04T05:16:10;102861.94;;;8.46;93.69
8140;BME280;4111;50.972;7.072;2023-02-04T05:18:41;102859.06;;;8.47;93.60
8140;BME280;4111;50.972;7.072;2023-02-04T05:21:07;102853.94;;;8.52;93.66
8140;BME280;4111;50.972;7.072;2023-02-04T05:23:34;102860.88;;;8.55;93.73
8140;BME280;4111;50.972;7.072;2023-02-04T05:26:00;102867.41;;;8.61;93.93
8140;BME280;4111;50.972;7.072;2023-02-04T05:28:27;102869.44;;;8.59;93.85
8140;BME280;4111;50.972;7.072;2023-02-04T05:30:53;102875.25;;;8.56;94.05
8140;BME280;4111;50.972;7.072;2023-02-04T05:33:20;102872.63;;;8.62;94.06
8140;BME280;4111;50.972;7.072;2023-02-04T05:35:46;102878.88;;;8.63;93.85
8140;BME280;4111;50.972;7.072;2023-02-04T05:38:15;102874.03;;;8.58;94.14
8140;BME280;4111;50.972;7.072;2023-02-04T05:40:41;102882.63;;;8.62;94.14
8140;BME280;4111;50.972;7.072;2023-02-04T05:43:08;102884.69;;;8.60;94.29
8140;BME280;4111;50.972;7.072;2023-02-04T05:45:34;102889.28;;;8.59;94.38
8140;BME280;4111;50.972;7.072;2023-02-04T05:48:01;102881.31;;;8.58;94.29
8140;BME280;4111;50.972;7.072;2023-02-04T05:50:27;102888.41;;;8.59;94.86
8140;BME280;4111;50.972;7.072;2023-02-04T05:52:54;102884.75;;;8.51;94.52
8140;BME280;4111;50.972;7.072;2023-02-04T05:55:21;102898.94;;;8.53;94.48
8140;BME280;4111;50.972;7.072;2023-02-04T05:57:48;102894.72;;;8.51;94.61
8140;BME280;4111;50.972;7.072;2023-02-04T06:00:14;102894.06;;;8.49;94.61
8140;BME280;4111;50.972;7.072;2023-02-04T06:02:41;102902.19;;;8.49;95.02
8140;BME280;4111;50.972;7.072;2023-02-04T06:05:07;102905.75;;;8.49;95.21
8140;BME280;4111;50.972;7.072;2023-02-04T06:07:34;102909.84;;;8.45;95.04
8140;BME280;4111;50.972;7.072;2023-02-04T06:10:00;102912.19;;;8.48;95.30
8140;BME280;4111;50.972;7.072;2023-02-04T06:12:26;102915.53;;;8.50;94.99
8140;BME280;4111;50.972;7.072;2023-02-04T06:14:53;102918.25;;;8.50;95.57
8140;BME280;4111;50.972;7.072;2023-02-04T06:17:20;102918.75;;;8.54;95.38
8140;BME280;4111;50.972;7.072;2023-02-04T06:19:46;102913.16;;;8.56;95.28
8140;BME280;4111;50.972;7.072;2023-02-04T06:22:13;102918.56;;;8.56;95.28
8140;BME280;4111;50.972;7.072;2023-02-04T06:24:39;102932.94;;;8.56;95.04
8140;BME280;4111;50.972;7.072;2023-02-04T06:27:05;102932.09;;;8.56;95.12
8140;BME280;4111;50.972;7.072;2023-02-04T06:29:32;102926.69;;;8.56;95.70
8140;BME280;4111;50.972;7.072;2023-02-04T06:31:58;102938.19;;;8.58;95.75
8140;BME280;4111;50.972;7.072;2023-02-04T06:34:25;102937.53;;;8.56;95.26
8140;BME280;4111;50.972;7.072;2023-02-04T06:36:51;102941.91;;;8.57;95.44
8140;BME280;4111;50.972;7.072;2023-02-04T06:39:18;102941.25;;;8.54;95.26
8140;BME280;4111;50.972;7.072;2023-02-04T06:41:44;102944.81;;;8.55;95.50
8140;BME280;4111;50.972;7.072;2023-02-04T06:44:10;102942.09;;;8.55;95.63
8140;BME280;4111;50.972;7.072;2023-02-04T06:46:37;102941.06;;;8.56;95.60
8140;BME280;4111;50.972;7.072;2023-02-04T06:49:03;102949.25;;;8.48;95.65
8140;BME280;4111;50.972;7.072;2023-02-04T06:51:30;102948.88;;;8.51;95.64
8140;BME280;4111;50.972;7.072;2023-02-04T06:53:56;102947.03;;;8.51;95.39
8140;BME280;4111;50.972;7.072;2023-02-04T06:56:24;102952.78;;;8.48;95.84
8140;BME280;4111;50.972;7.072;2023-02-04T06:58:52;102954.84;;;8.46;95.96
8140;BME280;4111;50.972;7.072;2023-02-04T07:01:18;102953.81;;;8.47;95.71
8140;BME280;4111;50.972;7.072;2023-02-04T07:03:44;102955.66;;;8.47;96.04
8140;BME280;4111;50.972;7.072;2023-02-04T07:06:12;102956.53;;;8.47;96.09
8140;BME280;4111;50.972;7.072;2023-02-04T07:08:38;102962.78;;;8.48;96.08
8140;BME280;4111;50.972;7.072;2023-02-04T07:11:05;102956.88;;;8.44;96.02
8140;BME280;4111;50.972;7.072;2023-02-04T07:13:31;102950.94;;;8.41;96.13
8140;BME280;4111;50.972;7.072;2023-02-04T07:15:58;102959.41;;;8.46;96.32
8140;BME280;4111;50.972;7.072;2023-02-04T07:18:24;102957.00;;;8.51;96.65
8140;BME280;4111;50.972;7.072;2023-02-04T07:20:51;102963.28;;;8.51;96.58
8140;BME280;4111;50.972;7.072;2023-02-04T07:23:17;102961.94;;;8.47;96.98
8140;BME280;4111;50.972;7.072;2023-02-04T07:25:44;102973.63;;;8.48;96.89
8140;BME280;4111;50.972;7.072;2023-02-04T07:28:10;102977.31;;;8.47;97.04
8140;BME280;4111;50.972;7.072;2023-02-04T07:30:37;102987.16;;;8.48;97.20
8140;BME280;4111;50.972;7.072;2023-02-04T07:33:03;102995.41;;;8.54;96.96
8140;BME280;4111;50.972;7.072;2023-02-04T07:35:30;102985.44;;;8.55;97.09
8140;BME280;4111;50.972;7.072;2023-02-04T07:37:56;102994.56;;;8.54;96.34
8140;BME280;4111;50.972;7.072;2023-02-04T07:40:23;102998.59;;;8.58;96.55
8140;BME280;4111;50.972;7.072;2023-02-04T07:42:49;102997.53;;;8.67;96.36
8140;BME280;4111;50.972;7.072;2023-02-04T07:45:16;103001.44;;;8.65;96.13
8140;BME280;4111;50.972;7.072;2023-02-04T07:47:42;103008.88;;;8.71;96.29
8140;BME280;4111;50.972;7.072;2023-02-04T07:50:09;103012.41;;;8.71;96.27
8140;BME280;4111;50.972;7.072;2023-02-04T07:52:35;103005.97;;;8.72;96.03
8140;BME280;4111;50.972;7.072;2023-02-04T07:55:02;103013.25;;;8.72;96.37
8140;BME280;4111;50.972;7.072;2023-02-04T07:57:28;103011.75;;;8.69;96.49
8140;BME280;4111;50.972;7.072;2023-02-04T07:59:55;103014.09;;;8.72;96.59
8140;BME280;4111;50.972;7.072;2023-02-04T08:02:21;103022.03;;;8.74;96.25
8140;BME280;4111;50.972;7.072;2023-02-04T08:04:48;103017.34;;;8.68;95.80
8140;BME280;4111;50.972;7.072;2023-02-04T08:07:14;103020.22;;;8.66;96.29
8140;BME280;4111;50.972;7.072;2023-02-04T08:09:41;103024.63;;;8.67;96.83
8140;BME280;4111;50.972;7.072;2023-02-04T08:12:07;103019.22;;;8.67;96.66
8140;BME280;4111;50.972;7.072;2023-02-04T08:14:34;103027.47;;;8.74;96.80
8140;BME280;4111;50.972;7.072;2023-02-04T08:17:00;103023.75;;;8.75;96.54
8140;BME280;4111;50.972;7.072;2023-02-04T08:19:27;103025.06;;;8.79;96.60
8140;BME280;4111;50.972;7.072;2023-02-04T08:21:53;103021.69;;;8.77;96.70
8140;BME280;4111;50.972;7.072;2023-02-04T08:24:20;103032.53;;;8.77;96.21
8140;BME280;4111;50.972;7.072;2023-02-04T08:26:46;103032.53;;;8.77;96.34
8140;BME280;4111;50.972;7.072;2023-02-04T08:29:13;103035.91;;;8.79;96.52
8140;BME280;4111;50.972;7.072;2023-02-04T08:31:39;103036.91;;;8.78;96.61
8140;BME280;4111;50.972;7.072;2023-02-04T08:34:06;103039.94;;;8.83;96.52
8140;BME280;4111;50.972;7.072;2023-02-04T08:36:33;103042.66;;;8.83;96.10
8140;BME280;4111;50.972;7.072;2023-02-04T08:38:59;103036.75;;;8.80;96.08
8140;BME280;4111;50.972;7.072;2023-02-04T08:41:26;103046.75;;;8.79;95.97
8140;BME280;4111;50.972;7.072;2023-02-04T08:43:52;103050.47;;;8.78;96.42
8140;BME280;4111;50.972;7.072;2023-02-04T08:46:19;103049.56;;;8.86;96.17
8140;BME280;4111;50.972;7.072;2023-02-04T08:48:45;103047.25;;;8.83;95.79
8140;BME280;4111;50.972;7.072;2023-02-04T08:51:11;103046.19;;;8.84;96.02
8140;BME280;4111;50.972;7.072;2023-02-04T08:53:39;103053.09;;;8.95;96.03
8140;BME280;4111;50.972;7.072;2023-02-04T08:56:06;103063.72;;;8.96;95.73
8140;BME280;4111;50.972;7.072;2023-02-04T08:58:34;103060.34;;;8.94;95.31
8140;BME280;4111;50.972;7.072;2023-02-04T09:01:00;103057.47;;;8.96;95.49
8140;BME280;4111;50.972;7.072;2023-02-04T09:03:27;103064.88;;;9.02;95.64
8140;BME280;4111;50.972;7.072;2023-02-04T09:05:53;103068.56;;;9.09;95.31
8140;BME280;4111;50.972;7.072;2023-02-04T09:08:20;103063.94;;;8.95;94.86
8140;BME280;4111;50.972;7.072;2023-02-04T09:10:48;103075.78;;;8.93;94.83
8140;BME280;4111;50.972;7.072;2023-02-04T09:13:15;103082.53;;;8.98;95.28
8140;BME280;4111;50.972;7.072;2023-02-04T09:15:41;103087.22;;;9.04;95.25
8140;BME280;4111;50.972;7.072;2023-02-04T09:18:08;103093.69;;;9.03;95.51
8140;BME280;4111;50.972;7.072;2023-02-04T09:20:45;103091.94;;;9.10;95.27
8140;BME280;4111;50.972;7.072;2023-02-04T09:23:12;103090.94;;;9.11;94.84
8140;BME280;4111;50.972;7.072;2023-02-04T09:25:39;103088.31;;;9.18;95.30
8140;BME280;4111;50.972;7.072;2023-02-04T09:28:06;103098.00;;;9.20;95.19
8140;BME280;4111;50.972;7.072;2023-02-04T09:30:35;103088.31;;;9.18;94.29
8140;BME280;4111;50.972;7.072;2023-02-04T09:33:01;103093.59;;;9.19;94.69
8140;BME280;4111;50.972;7.072;2023-02-04T09:35:28;103099.31;;;9.24;95.19
8140;BME280;4111;50.972;7.072;2023-02-04T09:37:54;103109.44;;;9.30;95.20
8140;BME280;4111;50.972;7.072;2023-02-04T09:40:21;103104.97;;;9.38;94.99
8140;BME280;4111;50.972;7.072;2023-02-04T09:42:49;103108.16;;;9.41;94.96
8140;BME280;4111;50.972;7.072;2023-02-04T09:45:20;103113.41;;;9.43;95.04
8140;BME280;4111;50.972;7.072;2023-02-04T09:47:49;103114.06;;;9.45;94.83
8140;BME280;4111;50.972;7.072;2023-02-04T09:50:19;103112.59;;;9.42;94.16
8140;BME280;4111;50.972;7.072;2023-02-04T09:52:48;103110.53;;;9.44;93.93
8140;BME280;4111;50.972;7.072;2023-02-04T09:55:18;103116.78;;;9.45;93.91
8140;BME280;4111;50.972;7.072;2023-02-04T09:57:46;103115.97;;;9.44;93.60
8140;BME280;4111;50.972;7.072;2023-02-04T10:00:18;103117.94;;;9.50;93.73
8140;BME280;4111;50.972;7.072;2023-02-04T10:02:46;103122.31;;;9.51;93.30
8140;BME280;4111;50.972;7.072;2023-02-04T10:05:15;103132.00;;;9.54;92.86
8140;BME280;4111;50.972;7.072;2023-02-04T10:07:42;103121.25;;;9.61;92.96
8140;BME280;4111;50.972;7.072;2023-02-04T10:10:18;103120.34;;;9.68;92.00
8140;BME280;4111;50.972;7.072;2023-02-04T10:12:46;103132.19;;;9.67;91.86
8140;BME280;4111;50.972;7.072;2023-02-04T10:15:15;103127.63;;;9.68;91.70
8140;BME280;4111;50.972;7.072;2023-02-04T10:17:45;103128.47;;;9.68;91.23
8140;BME280;4111;50.972;7.072;2023-02-04T10:20:20;103131.84;;;9.70;91.37
8140;BME280;4111;50.972;7.072;2023-02-04T10:22:48;103134.88;;;9.76;91.39
8140;BME280;4111;50.972;7.072;2023-02-04T10:25:18;103145.00;;;9.82;91.00
8140;BME280;4111;50.972;7.072;2023-02-04T10:27:57;103136.66;;;9.83;90.73
8140;BME280;4111;50.972;7.072;2023-02-04T10:30:29;103136.13;;;9.88;90.79
8140;BME280;4111;50.972;7.072;2023-02-04T10:33:15;103136.78;;;9.90;90.39
8140;BME280;4111;50.972;7.072;2023-02-04T10:35:47;103133.41;;;9.88;90.16
8140;BME280;4111;50.972;7.072;2023-02-04T10:38:14;103135.47;;;9.86;90.35
8140;BME280;4111;50.972;7.072;2023-02-04T10:40:41;103133.41;;;9.88;90.73
8140;BME280;4111;50.972;7.072;2023-02-04T10:43:30;103136.03;;;9.96;90.80
8140;BME280;4111;50.972;7.072;2023-02-04T10:46:01;103133.41;;;10.03;90.54
8140;BME280;4111;50.972;7.072;2023-02-04T10:48:28;103133.63;;;10.01;90.36
8140;BME280;4111;50.972;7.072;2023-02-04T10:50:57;103131.09;;;10.00;89.73
8140;BME280;4111;50.972;7.072;2023-02-04T10:53:24;103136.25;;;10.09;89.92
8140;BME280;4111;50.972;7.072;2023-02-04T10:56:19;103130.84;;;10.09;89.62
8140;BME280;4111;50.972;7.072;2023-02-04T10:58:46;103128.38;;;10.15;89.45
8140;BME280;4111;50.972;7.072;2023-02-04T11:01:14;103132.91;;;10.07;89.06
8140;BME280;4111;50.972;7.072;2023-02-04T11:03:42;103140.16;;;10.07;88.68
8140;BME280;4111;50.972;7.072;2023-02-04T11:06:13;103129.06;;;10.17;88.27
8140;BME280;4111;50.972;7.072;2023-02-04T11:08:41;103132.81;;;10.16;88.05
8140;BME280;4111;50.972;7.072;2023-02-04T11:11:14;103130.19;;;10.22;88.12
8140;BME280;4111;50.972;7.072;2023-02-04T11:13:44;103136.56;;;10.29;88.12
8140;BME280;4111;50.972;7.072;2023-02-04T11:16:12;103135.38;;;10.32;87.95
8140;BME280;4111;50.972;7.072;2023-02-04T11:19:00;103137.78;;;10.27;87.54
8140;BME280;4111;50.972;7.072;2023-02-04T11:26:35;103139.41;;;10.36;87.35
8140;BME280;4111;50.972;7.072;2023-02-04T11:31:41;103136.16;;;10.41;86.87
8140;BME280;4111;50.972;7.072;2023-02-04T11:34:10;103136.41;;;10.31;86.35
8140;BME280;4111;50.972;7.072;2023-02-04T11:39:27;103135.25;;;10.25;86.53
8140;BME280;4111;50.972;7.072;2023-02-04T11:41:54;103133.03;;;10.29;86.75
8140;BME280;4111;50.972;7.072;2023-02-04T11:44:20;103135.06;;;10.27;87.11
8140;BME280;4111;50.972;7.072;2023-02-04T11:46:50;103138.09;;;10.32;87.22
8140;BME280;4111;50.972;7.072;2023-02-04T11:49:18;103130.66;;;10.26;86.76
8140;BME280;4111;50.972;7.072;2023-02-04T11:51:45;103135.38;;;10.32;87.14
8140;BME280;4111;50.972;7.072;2023-02-04T11:54:14;103130.06;;;10.39;87.21
8140;BME280;4111;50.972;7.072;2023-02-04T11:56:45;103133.53;;;10.47;87.25
8140;BME280;4111;50.972;7.072;2023-02-04T11:59:13;103129.41;;;10.51;87.09
8140;BME280;4111;50.972;7.072;2023-02-04T12:01:40;103132.47;;;10.48;86.90
8140;BME280;4111;50.972;7.072;2023-02-04T12:04:18;103134.00;;;10.51;86.47
8140;BME280;4111;50.972;7.072;2023-02-04T12:06:59;103137.84;;;10.57;86.48
8140;BME280;4111;50.972;7.072;2023-02-04T12:09:30;103139.97;;;10.61;86.66
8140;BME280;4111;50.972;7.072;2023-02-04T12:12:01;103140.06;;;10.68;86.83
8140;BME280;4111;50.972;7.072;2023-02-04T12:14:31;103138.38;;;10.67;86.40
8140;BME280;4111;50.972;7.072;2023-02-04T12:16:58;103129.59;;;10.65;86.08
8140;BME280;4111;50.972;7.072;2023-02-04T12:19:25;103136.91;;;10.64;85.89
8140;BME280;4111;50.972;7.072;2023-02-04T12:21:53;103137.44;;;10.60;85.08
8140;BME280;4111;50.972;7.072;2023-02-04T12:24:20;103139.50;;;10.58;84.73
8140;BME280;4111;50.972;7.072;2023-02-04T12:26:47;103140.72;;;10.55;84.75
8140;BME280;4111;50.972;7.072;2023-02-04T12:29:13;103141.66;;;10.47;84.46
8140;BME280;4111;50.972;7.072;2023-02-04T12:31:39;103136.13;;;10.56;84.91
8140;BME280;4111;50.972;7.072;2023-02-04T12:34:06;103143.72;;;10.60;84.81
8140;BME280;4111;50.972;7.072;2023-02-04T12:36:33;103138.66;;;10.57;84.57
8140;BME280;4111;50.972;7.072;2023-02-04T12:38:59;103139.16;;;10.61;84.13
8140;BME280;4111;50.972;7.072;2023-02-04T12:41:25;103136.88;;;10.49;83.71
8140;BME280;4111;50.972;7.072;2023-02-04T12:43:53;103138.84;;;10.56;83.37
8140;BME280;4111;50.972;7.072;2023-02-04T12:46:21;103136.69;;;10.66;83.65
8140;BME280;4111;50.972;7.072;2023-02-04T12:48:47;103134.91;;;10.73;83.84
8140;BME280;4111;50.972;7.072;2023-02-04T12:51:14;103134.72;;;10.75;83.21
8140;BME280;4111;50.972;7.072;2023-02-04T12:53:40;103136.31;;;10.69;82.96
8140;BME280;4111;50.972;7.072;2023-02-04T12:56:07;103137.63;;;10.73;82.55
8140;BME280;4111;50.972;7.072;2023-02-04T12:58:34;103140.06;;;10.83;82.92
8140;BME280;4111;50.972;7.072;2023-02-04T13:01:00;103137.72;;;10.80;82.64
8140;BME280;4111;50.972;7.072;2023-02-04T13:03:29;103132.38;;;10.86;82.77
8140;BME280;4111;50.972;7.072;2023-02-04T13:05:56;103141.47;;;10.79;81.64
8140;BME280;4111;50.972;7.072;2023-02-04T13:08:23;103136.22;;;10.77;81.44
8140;BME280;4111;50.972;7.072;2023-02-04T13:10:49;103137.81;;;10.86;81.70
8140;BME280;4111;50.972;7.072;2023-02-04T13:13:18;103146.69;;;10.95;81.40
8140;BME280;4111;50.972;7.072;2023-02-04T13:15:45;103144.31;;;11.07;81.10
8140;BME280;4111;50.972;7.072;2023-02-04T13:18:11;103132.97;;;11.18;80.54
8140;BME280;4111;50.972;7.072;2023-02-04T13:20:38;103135.41;;;11.13;80.24
8140;BME280;4111;50.972;7.072;2023-02-04T13:23:05;103144.63;;;10.97;80.14
8140;BME280;4111;50.972;7.072;2023-02-04T13:25:32;103132.50;;;11.00;79.86
8140;BME280;4111;50.972;7.072;2023-02-04T13:27:59;103132.31;;;11.16;80.15
8140;BME280;4111;50.972;7.072;2023-02-04T13:30:26;103135.28;;;11.21;79.86
8140;BME280;4111;50.972;7.072;2023-02-04T13:32:52;103136.84;;;11.30;79.67